createdAt,value
2018-03-26T00:00:23.417Z,28.27
2018-03-26T00:02:52.472Z,32.17
2018-03-26T00:05:21.497Z,31.40
2018-03-26T00:07:50.522Z,36.57
2018-03-26T00:10:19.566Z,40.97
2018-03-26T00:12:49.360Z,41.83
2018-03-26T00:15:18.410Z,48.17
2018-03-26T00:17:47.458Z,38.03
2018-03-26T00:20:16.476Z,36.97
2018-03-26T00:22:45.545Z,34.57
2018-03-26T00:25:14.570Z,34.43
2018-03-26T00:27:43.629Z,33.67
2018-03-26T00:30:12.692Z,36.47
2018-03-26T00:32:41.714Z,37.23
2018-03-26T00:35:10.793Z,37.63
2018-03-26T00:37:39.820Z,35.30
2018-03-26T00:40:08.841Z,29.73
2018-03-26T00:42:37.891Z,33.90
2018-03-26T00:45:06.937Z,46.30
2018-03-26T00:47:36.003Z,60.50
2018-03-26T00:50:05.826Z,41.70
2018-03-26T00:52:34.848Z,41.47
2018-03-26T00:55:03.911Z,36.97
2018-03-26T00:57:33.701Z,37.10
2018-03-26T01:00:02.758Z,37.50
2018-03-26T01:02:31.800Z,33.03
2018-03-26T01:05:01.585Z,41.23
2018-03-26T01:07:30.633Z,30.97
2018-03-26T01:09:59.685Z,36.00
2018-03-26T01:12:28.746Z,36.57
2018-03-26T01:14:57.768Z,35.43
2018-03-26T01:17:26.792Z,40.00
2018-03-26T01:19:56.630Z,33.30
2018-03-26T01:22:25.629Z,34.90
2018-03-26T01:24:54.674Z,40.27
2018-03-26T01:27:23.693Z,40.73
2018-03-26T01:29:52.742Z,39.50
2018-03-26T01:32:21.799Z,41.20
2018-03-26T01:34:50.822Z,38.00
2018-03-26T01:37:19.868Z,37.47
2018-03-26T01:39:48.926Z,39.57
2018-03-26T01:42:17.948Z,38.10
2018-03-26T01:44:46.976Z,42.77
2018-03-26T01:47:16.026Z,44.57
2018-03-26T01:49:45.817Z,45.07
2018-03-26T01:52:14.872Z,38.57
2018-03-26T01:54:43.929Z,40.50
2018-03-26T01:57:13.732Z,35.00
2018-03-26T01:59:43.548Z,34.63
2018-03-26T02:02:13.337Z,34.47
2018-03-26T02:04:42.425Z,36.93
2018-03-26T02:07:11.444Z,35.30
2018-03-26T02:09:41.245Z,36.33
2018-03-26T02:12:10.306Z,36.80
2018-03-26T02:14:39.374Z,36.70
2018-03-26T02:17:08.405Z,36.43
2018-03-26T02:19:37.450Z,35.77
2018-03-26T02:22:06.477Z,37.30
2018-03-26T02:24:35.538Z,34.83
2018-03-26T02:27:04.571Z,34.57
2018-03-26T02:29:33.598Z,34.97
2018-03-26T02:32:02.646Z,33.83
2018-03-26T02:34:31.693Z,37.90
2018-03-26T02:37:01.500Z,38.13
2018-03-26T02:39:30.553Z,36.40
2018-03-26T02:41:59.612Z,35.57
2018-03-26T02:44:29.406Z,34.77
2018-03-26T02:46:58.444Z,34.33
2018-03-26T02:49:27.810Z,27.03
2018-03-26T02:51:57.617Z,32.80
2018-03-26T02:54:27.414Z,36.97
2018-03-26T02:56:56.468Z,34.57
2018-03-26T02:59:25.511Z,34.57
2018-03-26T03:01:54.526Z,32.10
2018-03-26T03:04:23.577Z,32.00
2018-03-26T03:06:52.625Z,34.80
2018-03-26T03:09:21.673Z,30.07
2018-03-26T03:11:50.698Z,39.90
2018-03-26T03:14:19.760Z,36.37
2018-03-26T03:16:48.782Z,38.43
2018-03-26T03:19:18.596Z,56.13
2018-03-26T03:21:47.629Z,36.63
2018-03-26T03:24:16.676Z,29.60
2018-03-26T03:26:46.464Z,29.67
2018-03-26T03:29:15.536Z,34.93
2018-03-26T03:31:44.562Z,32.77
2018-03-26T03:34:13.585Z,32.30
2018-03-26T03:36:42.637Z,31.83
2018-03-26T03:39:11.669Z,29.23
2018-03-26T03:41:41.486Z,34.53
2018-03-26T03:44:10.509Z,33.40
2018-03-26T03:46:39.559Z,36.60
2018-03-26T03:49:09.375Z,31.60
2018-03-26T03:51:38.461Z,38.00
2018-03-26T03:54:08.241Z,31.23
2018-03-26T03:56:37.292Z,30.20
2018-03-26T03:59:06.358Z,31.80
2018-03-26T04:01:35.393Z,28.63
2018-03-26T04:04:04.446Z,26.90
2018-03-26T04:06:34.262Z,31.40
2018-03-26T04:09:04.057Z,33.23
2018-03-26T04:11:33.105Z,26.70
2018-03-26T04:14:02.133Z,27.37
2018-03-26T04:16:31.191Z,28.60
2018-03-26T04:19:00.250Z,27.17
2018-03-26T04:21:30.040Z,28.53
2018-03-26T04:23:59.094Z,30.00
2018-03-26T04:26:28.168Z,32.40
2018-03-26T04:28:57.188Z,26.37
2018-03-26T04:31:26.241Z,31.20
2018-03-26T04:33:56.074Z,26.30
2018-03-26T04:36:25.092Z,27.70
2018-03-26T04:38:54.140Z,27.30
2018-03-26T04:41:23.930Z,30.33
2018-03-26T04:43:52.973Z,28.30
2018-03-26T04:46:22.000Z,25.70
2018-03-26T04:48:51.055Z,28.00
2018-03-26T04:51:20.075Z,29.50
2018-03-26T04:53:49.236Z,32.87
2018-03-26T04:56:18.269Z,28.67
2018-03-26T04:58:47.427Z,29.70
2018-03-26T05:01:16.509Z,33.27
2018-03-26T05:03:46.302Z,49.17
2018-03-26T05:06:15.337Z,32.97
2018-03-26T05:08:44.382Z,49.33
2018-03-26T05:11:13.413Z,102.53
2018-03-26T05:13:42.438Z,38.67
2018-03-26T05:16:11.497Z,33.97
2018-03-26T05:18:40.529Z,35.20
2018-03-26T05:21:09.548Z,30.50
2018-03-26T05:23:38.609Z,44.13
2018-03-26T05:26:07.634Z,34.90
2018-03-26T05:28:36.664Z,32.30
2018-03-26T05:31:06.522Z,30.90
2018-03-26T05:33:35.497Z,28.07
2018-03-26T05:36:04.546Z,34.07
2018-03-26T05:38:34.705Z,28.33
2018-03-26T05:41:03.730Z,33.40
2018-03-26T05:43:32.756Z,37.70
2018-03-26T05:46:02.564Z,28.67
2018-03-26T05:48:32.361Z,35.63
2018-03-26T05:51:01.383Z,27.63
2018-03-26T05:53:31.182Z,32.97
2018-03-26T05:56:00.979Z,32.73
2018-03-26T05:58:30.000Z,122.17
2018-03-26T06:00:59.280Z,102.07
2018-03-26T06:03:29.105Z,46.57
2018-03-26T06:05:58.899Z,34.77
2018-03-26T06:08:27.921Z,38.43
2018-03-26T06:10:56.984Z,33.13
2018-03-26T06:13:26.009Z,36.90
2018-03-26T06:15:55.811Z,33.70
2018-03-26T06:18:25.638Z,37.30
2018-03-26T06:20:54.657Z,39.20
2018-03-26T06:23:23.690Z,33.07
2018-03-26T06:25:52.753Z,40.97
2018-03-26T06:28:21.773Z,36.77
2018-03-26T06:30:50.805Z,36.60
2018-03-26T06:33:19.862Z,35.37
2018-03-26T06:35:48.921Z,33.60
2018-03-26T06:38:38.497Z,33.37
2018-03-26T06:41:07.525Z,37.00
2018-03-26T06:43:36.553Z,34.60
2018-03-26T06:46:05.626Z,39.90
2018-03-26T06:48:35.426Z,32.47
2018-03-26T06:51:04.470Z,33.87
2018-03-26T06:53:33.537Z,30.63
2018-03-26T06:56:03.337Z,33.23
2018-03-26T06:58:32.365Z,33.07
2018-03-26T07:01:01.663Z,29.23
2018-03-26T07:03:30.702Z,28.77
2018-03-26T07:05:59.744Z,31.37
2018-03-26T07:08:28.802Z,70.47
2018-03-26T07:10:57.830Z,115.93
2018-03-26T07:13:26.858Z,45.43
2018-03-26T07:15:55.916Z,32.43
2018-03-26T07:18:24.952Z,29.23
2018-03-26T07:20:53.976Z,31.43
2018-03-26T07:23:23.052Z,30.83
2018-03-26T07:25:52.099Z,31.17
2018-03-26T07:28:21.132Z,34.30
2018-03-26T07:30:50.215Z,32.03
2018-03-26T07:33:19.242Z,35.13
2018-03-26T07:35:48.318Z,34.47
2018-03-26T07:38:17.358Z,34.00
2018-03-26T07:40:46.390Z,34.53
2018-03-26T07:43:15.427Z,36.30
2018-03-26T07:45:45.265Z,38.50
2018-03-26T07:48:14.285Z,30.90
2018-03-26T07:50:43.319Z,33.10
2018-03-26T07:53:12.479Z,35.60
2018-03-26T07:55:41.503Z,38.07
2018-03-26T07:58:10.538Z,56.47
2018-03-26T08:00:39.697Z,95.23
2018-03-26T08:03:08.725Z,66.63
2018-03-26T08:05:37.753Z,38.03
2018-03-26T08:08:06.829Z,37.80
2018-03-26T08:10:35.870Z,31.60
2018-03-26T08:13:04.902Z,30.00
2018-03-26T08:15:34.010Z,28.87
2018-03-26T08:18:03.046Z,32.30
2018-03-26T08:20:32.089Z,34.30
2018-03-26T08:23:01.200Z,35.40
2018-03-26T08:25:30.175Z,31.83
2018-03-26T08:27:59.204Z,31.30
2018-03-26T08:30:28.375Z,23.70
2018-03-26T08:32:57.410Z,24.10
2018-03-26T08:35:26.447Z,27.10
2018-03-26T08:37:55.501Z,21.33
2018-03-26T08:40:24.527Z,19.97
2018-03-26T08:42:54.360Z,21.30
2018-03-26T08:45:24.163Z,19.70
2018-03-26T08:47:53.188Z,23.43
2018-03-26T08:50:22.325Z,19.57
2018-03-26T08:52:51.268Z,27.50
2018-03-26T08:55:20.332Z,31.43
2018-03-26T08:57:50.106Z,33.47
2018-03-26T09:00:19.174Z,30.20
2018-03-26T09:02:48.204Z,31.07
2018-03-26T09:05:17.276Z,30.00
2018-03-26T09:07:46.302Z,37.47
2018-03-26T09:10:16.085Z,28.33
2018-03-26T09:12:45.149Z,29.50
2018-03-26T09:15:14.174Z,21.40
2018-03-26T09:17:43.229Z,22.00
2018-03-26T09:20:12.298Z,17.43
2018-03-26T09:22:42.091Z,21.37
2018-03-26T09:25:11.149Z,18.97
2018-03-26T09:27:40.171Z,21.00
2018-03-26T09:30:09.256Z,18.30
2018-03-26T09:32:38.261Z,19.83
2018-03-26T09:35:07.281Z,22.00
2018-03-26T09:37:37.093Z,18.17
2018-03-26T09:40:06.909Z,22.57
2018-03-26T09:42:35.947Z,21.40
2018-03-26T09:45:04.992Z,20.93
2018-03-26T09:47:34.023Z,17.03
2018-03-26T09:50:03.070Z,17.70
2018-03-26T09:52:32.098Z,18.40
2018-03-26T09:55:01.242Z,17.67
2018-03-26T09:57:30.270Z,18.60
2018-03-26T09:59:59.289Z,19.90
2018-03-26T10:02:28.354Z,17.63
2018-03-26T10:04:58.165Z,35.03
2018-03-26T10:07:27.952Z,39.13
2018-03-26T10:09:57.004Z,32.33
2018-03-26T10:12:26.035Z,22.17
2018-03-26T10:14:55.093Z,20.33
2018-03-26T10:17:24.146Z,19.87
2018-03-26T10:19:53.937Z,21.73
2018-03-26T10:22:22.992Z,22.43
2018-03-26T10:24:52.050Z,25.33
2018-03-26T10:27:21.847Z,19.13
2018-03-26T10:29:50.892Z,20.60
2018-03-26T10:32:19.949Z,20.53
2018-03-26T10:34:49.743Z,20.00
2018-03-26T10:37:19.573Z,23.77
2018-03-26T10:39:50.265Z,40.70
2018-03-26T10:42:19.300Z,61.53
2018-03-26T10:44:49.121Z,26.40
2018-03-26T10:47:18.906Z,21.67
2018-03-26T10:49:48.726Z,20.93
2018-03-26T10:52:18.521Z,20.47
2018-03-26T10:54:47.590Z,21.90
2018-03-26T10:57:16.645Z,19.20
2018-03-26T10:59:45.677Z,22.27
2018-03-26T11:02:14.730Z,23.17
2018-03-26T11:04:43.751Z,20.07
2018-03-26T11:07:15.472Z,21.53
2018-03-26T11:09:45.773Z,20.10
2018-03-26T11:12:14.835Z,28.60
2018-03-26T11:14:43.858Z,25.83
2018-03-26T11:17:13.054Z,26.70
2018-03-26T11:19:42.120Z,22.20
2018-03-26T11:22:11.201Z,21.00
2018-03-26T11:24:40.307Z,18.07
2018-03-26T11:27:09.447Z,22.20
2018-03-26T11:29:39.245Z,18.87
2018-03-26T11:32:08.285Z,24.00
2018-03-26T11:34:37.355Z,23.17
2018-03-26T11:37:07.159Z,19.40
2018-03-26T11:39:36.969Z,18.87
2018-03-26T11:42:06.813Z,21.83
2018-03-26T11:44:35.847Z,17.27
2018-03-26T11:47:05.010Z,21.10
2018-03-26T11:49:34.072Z,17.77
2018-03-26T11:52:03.076Z,22.13
2018-03-26T11:54:32.926Z,18.70
2018-03-26T11:57:01.963Z,19.80
2018-03-26T11:59:31.002Z,18.87
2018-03-26T12:02:00.059Z,20.30
2018-03-26T12:04:29.866Z,17.80
2018-03-26T12:06:58.901Z,19.93
2018-03-26T12:09:28.067Z,17.67
2018-03-26T12:11:57.861Z,19.77
2018-03-26T12:14:26.885Z,21.10
2018-03-26T12:16:55.954Z,19.07
2018-03-26T12:19:25.816Z,16.70
2018-03-26T12:21:54.857Z,18.80
2018-03-26T12:24:41.726Z,16.37
2018-03-26T12:27:10.749Z,20.13
2018-03-26T12:29:57.562Z,17.90
2018-03-26T12:32:26.671Z,17.30
2018-03-26T12:35:13.562Z,19.53
2018-03-26T12:37:42.592Z,20.33
2018-03-26T12:40:30.018Z,17.90
2018-03-26T12:42:59.812Z,17.40
2018-03-26T12:45:47.714Z,19.77
2018-03-26T12:48:17.006Z,16.93
2018-03-26T12:51:04.175Z,22.97
2018-03-26T12:53:34.993Z,17.27
2018-03-26T12:56:04.357Z,17.10
2018-03-26T12:58:52.457Z,16.73
2018-03-26T13:01:39.622Z,18.60
2018-03-26T13:04:08.923Z,16.03
2018-03-26T13:06:38.202Z,18.30
2018-03-26T13:09:08.322Z,17.30
2018-03-26T13:11:38.378Z,17.20
2018-03-26T13:14:07.670Z,18.70
2018-03-26T13:16:37.026Z,18.03
2018-03-26T13:19:06.316Z,17.93
2018-03-26T13:21:35.660Z,23.47
2018-03-26T13:24:04.975Z,18.33
2018-03-26T13:26:34.329Z,20.93
2018-03-26T13:29:04.421Z,20.20
2018-03-26T13:31:33.756Z,17.80
2018-03-26T13:34:03.871Z,17.43
2018-03-26T13:36:33.239Z,20.97
2018-03-26T13:39:02.557Z,18.87
2018-03-26T13:41:31.845Z,15.80
2018-03-26T13:44:01.167Z,18.13
2018-03-26T13:46:30.476Z,19.43
2018-03-26T13:49:00.546Z,16.43
2018-03-26T13:51:29.861Z,19.93
2018-03-26T13:53:59.214Z,18.73
2018-03-26T13:56:28.475Z,16.63
2018-03-26T13:58:57.769Z,16.90
2018-03-26T14:01:27.101Z,17.80
2018-03-26T14:03:57.182Z,16.50
2018-03-26T14:06:26.564Z,18.13
2018-03-26T14:09:13.724Z,17.10
2018-03-26T14:12:00.976Z,16.63
2018-03-26T14:14:48.087Z,18.80
2018-03-26T14:17:34.849Z,19.80
2018-03-26T14:20:04.186Z,18.07
2018-03-26T14:22:34.237Z,17.03
2018-03-26T14:25:03.586Z,16.57
2018-03-26T14:27:32.896Z,19.53
2018-03-26T14:30:03.004Z,14.73
2018-03-26T14:32:33.301Z,16.97
2018-03-26T14:48:39.471Z,15.43
2018-03-26T14:51:08.792Z,18.10
2018-03-26T14:53:38.848Z,16.87
2018-03-26T14:56:08.204Z,17.70
2018-03-26T14:58:37.506Z,17.83
2018-03-26T15:01:07.649Z,13.93
2018-03-26T15:03:37.121Z,14.90
2018-03-26T15:06:06.428Z,15.30
2018-03-26T15:08:36.503Z,15.20
2018-03-26T15:11:05.800Z,14.43
2018-03-26T15:13:35.078Z,14.20
2018-03-26T15:16:04.508Z,13.70
2018-03-26T15:18:34.007Z,14.97
2018-03-26T15:21:03.283Z,14.47
2018-03-26T15:23:32.598Z,15.43
2018-03-26T15:26:01.927Z,18.30
2018-03-26T15:28:31.353Z,15.27
2018-03-26T15:31:01.422Z,26.33
2018-03-26T15:33:30.707Z,18.27
2018-03-26T15:36:00.055Z,17.83
2018-03-26T15:38:29.371Z,13.80
2018-03-26T15:40:58.679Z,17.47
2018-03-26T15:43:28.776Z,42.27
2018-03-26T15:45:58.073Z,26.37
2018-03-26T15:48:27.371Z,19.30
2018-03-26T15:50:56.728Z,16.83
2018-03-26T15:53:26.035Z,16.50
2018-03-26T15:55:55.350Z,15.10
2018-03-26T15:58:24.776Z,14.70
2018-03-26T16:00:54.065Z,15.47
2018-03-26T16:03:30.846Z,18.53
2018-03-26T16:06:01.841Z,28.53
2018-03-26T16:08:31.141Z,46.07
2018-03-26T16:11:00.482Z,15.60
2018-03-26T16:13:30.631Z,15.27
2018-03-26T16:15:59.941Z,15.67
2018-03-26T16:18:30.489Z,19.70
2018-03-26T16:20:59.849Z,19.20
2018-03-26T16:23:29.144Z,26.63
2018-03-26T16:25:58.470Z,21.37
2018-03-26T16:28:28.577Z,15.63
2018-03-26T16:30:57.925Z,15.73
2018-03-26T16:33:28.850Z,14.80
2018-03-26T16:35:58.178Z,16.67
2018-03-26T16:38:27.519Z,15.80
2018-03-26T16:40:56.877Z,15.27
2018-03-26T16:43:26.189Z,14.97
2018-03-26T16:45:55.563Z,16.40
2018-03-26T16:48:24.909Z,15.40
2018-03-26T16:50:54.805Z,18.57
2018-03-26T16:53:24.145Z,14.80
2018-03-26T16:55:54.241Z,15.70
2018-03-26T16:58:23.574Z,19.30
2018-03-26T17:00:53.684Z,26.43
2018-03-26T17:03:23.827Z,33.57
2018-03-26T17:05:53.172Z,17.53
2018-03-26T17:08:22.527Z,18.73
2018-03-26T17:10:51.970Z,18.93
2018-03-26T17:13:21.263Z,21.50
2018-03-26T17:15:50.616Z,17.33
2018-03-26T17:18:20.710Z,17.70
2018-03-26T17:20:50.072Z,17.47
2018-03-26T17:23:19.416Z,14.83
2018-03-26T17:25:48.771Z,18.13
2018-03-26T17:28:18.121Z,15.07
2018-03-26T17:30:48.097Z,14.47
2018-03-26T17:33:17.459Z,17.10
2018-03-26T17:35:47.551Z,16.83
2018-03-26T17:38:16.889Z,16.37
2018-03-26T17:40:46.216Z,17.90
2018-03-26T17:43:15.571Z,17.10
2018-03-26T17:45:45.686Z,16.37
2018-03-26T17:48:16.776Z,19.70
2018-03-26T17:50:46.147Z,20.13
2018-03-26T17:53:15.494Z,21.40
2018-03-26T17:55:44.867Z,26.03
2018-03-26T17:58:14.244Z,23.07
2018-03-26T18:00:44.364Z,22.90
2018-03-26T18:03:14.500Z,27.37
2018-03-26T18:05:43.831Z,28.50
2018-03-26T18:08:13.153Z,28.57
2018-03-26T18:10:42.526Z,29.13
2018-03-26T18:13:11.874Z,25.83
2018-03-26T18:15:41.224Z,25.90
2018-03-26T18:18:10.590Z,29.80
2018-03-26T18:20:40.723Z,27.47
2018-03-26T18:23:10.063Z,30.43
2018-03-26T18:25:39.416Z,30.30
2018-03-26T18:28:09.505Z,24.03
2018-03-26T18:30:38.865Z,23.67
2018-03-26T18:33:08.191Z,24.20
2018-03-26T18:35:37.545Z,26.73
2018-03-26T18:38:06.941Z,28.07
2018-03-26T18:40:36.294Z,85.17
2018-03-26T18:43:05.626Z,73.13
2018-03-26T18:45:36.841Z,35.77
2018-03-26T18:48:06.216Z,31.57
2018-03-26T18:50:35.556Z,30.33
2018-03-26T18:53:05.752Z,31.47
2018-03-26T18:55:35.126Z,34.43
2018-03-26T18:58:04.451Z,31.00
2018-03-26T19:00:33.884Z,32.07
2018-03-26T19:03:03.250Z,30.17
2018-03-26T19:05:32.604Z,27.67
2018-03-26T19:08:02.736Z,34.23
2018-03-26T19:10:32.885Z,29.00
2018-03-26T19:13:03.152Z,26.20
2018-03-26T19:15:33.404Z,28.20
2018-03-26T19:18:03.538Z,23.73
2018-03-26T19:20:32.904Z,32.17
2018-03-26T19:23:02.242Z,28.77
2018-03-26T19:25:31.616Z,26.57
2018-03-26T19:28:01.716Z,27.43
2018-03-26T19:30:31.093Z,31.53
2018-03-26T19:33:01.329Z,26.10
2018-03-26T19:35:31.663Z,28.17
2018-03-26T19:38:00.995Z,33.77
2018-03-26T19:40:31.269Z,29.43
2018-03-26T19:43:01.264Z,28.43
2018-03-26T19:45:30.637Z,28.57
2018-03-26T19:47:59.987Z,30.30
2018-03-26T19:50:29.317Z,31.97
2018-03-26T19:52:58.675Z,28.17
2018-03-26T19:55:27.999Z,31.30
2018-03-26T19:57:57.334Z,31.60
2018-03-26T20:00:27.496Z,28.27
2018-03-26T20:02:57.832Z,27.90
2018-03-26T20:05:28.328Z,25.00
2018-03-26T20:07:58.748Z,30.07
2018-03-26T20:10:28.109Z,28.80
2018-03-26T20:12:57.446Z,26.70
2018-03-26T20:15:26.782Z,28.87
2018-03-26T20:17:56.807Z,29.90
2018-03-26T20:20:26.134Z,28.47
2018-03-26T20:22:55.497Z,24.27
2018-03-26T20:25:24.820Z,25.93
2018-03-26T20:27:54.133Z,25.90
2018-03-26T20:30:23.494Z,27.57
2018-03-26T20:32:53.435Z,25.00
2018-03-26T20:35:22.762Z,25.83
2018-03-26T20:37:52.154Z,30.43
2018-03-26T20:40:21.500Z,29.37
2018-03-26T20:42:50.813Z,97.30
2018-03-26T20:45:20.928Z,34.53
2018-03-26T20:47:50.244Z,32.93
2018-03-26T20:50:19.603Z,31.27
2018-03-26T20:52:48.980Z,30.73
2018-03-26T20:55:19.090Z,28.20
2018-03-26T20:57:48.415Z,30.80
2018-03-26T21:00:18.527Z,32.20
2018-03-26T21:02:47.848Z,27.00
2018-03-26T21:05:17.175Z,27.63
2018-03-26T21:07:46.507Z,24.57
2018-03-26T21:10:15.801Z,26.77
2018-03-26T21:12:45.105Z,27.70
2018-03-26T21:15:14.385Z,30.20
2018-03-26T21:17:43.720Z,30.00
2018-03-26T21:20:13.041Z,30.83
2018-03-26T21:22:42.340Z,28.27
2018-03-26T21:25:11.668Z,28.80
2018-03-26T21:27:40.996Z,26.20
2018-03-26T21:30:10.244Z,24.90
2018-03-26T21:32:39.384Z,28.03
2018-03-26T21:35:08.393Z,29.13
2018-03-26T21:37:38.214Z,27.13
2018-03-26T21:40:08.037Z,26.50
2018-03-26T21:42:37.059Z,28.00
2018-03-26T21:45:06.167Z,27.90
2018-03-26T21:47:35.905Z,26.83
2018-03-26T21:50:04.969Z,25.07
2018-03-26T21:52:34.821Z,29.63
2018-03-26T21:55:03.885Z,27.20
2018-03-26T21:57:32.930Z,28.90
2018-03-26T22:00:01.998Z,25.77
2018-03-26T22:02:31.076Z,29.10
2018-03-26T22:05:00.083Z,27.13
2018-03-26T22:07:29.181Z,30.57
2018-03-26T22:09:58.222Z,25.93
2018-03-26T22:12:27.257Z,26.17
2018-03-26T22:14:56.301Z,24.80
2018-03-26T22:17:25.344Z,23.80
2018-03-26T22:19:54.505Z,27.30
2018-03-26T22:22:23.557Z,26.10
2018-03-26T22:24:53.361Z,24.57
2018-03-26T22:27:22.399Z,23.90
2018-03-26T22:29:51.578Z,23.93
2018-03-26T22:32:21.388Z,27.70
2018-03-26T22:34:50.423Z,24.60
2018-03-26T22:37:19.478Z,23.43
2018-03-26T22:39:48.505Z,26.23
2018-03-26T22:42:17.533Z,27.07
2018-03-26T22:44:46.607Z,25.17
2018-03-26T22:47:15.630Z,26.00
2018-03-26T22:49:45.454Z,29.20
2018-03-26T22:52:15.258Z,25.33
2018-03-26T22:54:44.317Z,26.10
2018-03-26T22:57:13.393Z,30.90
2018-03-26T22:59:42.422Z,22.83
2018-03-26T23:02:11.509Z,23.93
2018-03-26T23:04:40.537Z,28.83
2018-03-26T23:07:10.369Z,22.60
2018-03-26T23:09:39.396Z,23.53
2018-03-26T23:12:08.422Z,23.23
2018-03-26T23:14:37.479Z,22.50
2018-03-26T23:17:06.532Z,24.60
2018-03-26T23:19:35.564Z,25.93
2018-03-26T23:22:04.617Z,25.20
2018-03-26T23:24:33.678Z,28.30
2018-03-26T23:27:02.730Z,25.47
2018-03-26T23:29:31.767Z,23.57
2018-03-26T23:32:00.798Z,23.27
2018-03-26T23:34:29.844Z,21.30
2018-03-26T23:36:58.870Z,22.60
2018-03-26T23:39:27.925Z,25.37
2018-03-26T23:41:56.953Z,25.10
2018-03-26T23:44:26.785Z,21.60
2018-03-26T23:46:55.821Z,23.40
2018-03-26T23:49:24.848Z,25.07
2018-03-26T23:51:53.904Z,27.77
2018-03-26T23:54:22.957Z,22.90
2018-03-26T23:56:51.983Z,21.97
2018-03-26T23:59:21.041Z,23.77
